KSAA/SAA METAR and TAF weather

Enter ICAO airport designator
Station Type Date Time Source
KSAA METAR 2022/01/23 11:15 UTC NOAA

KSAA 231115Z AUTO 16009KT 10SM CLR M12/M16 A3027 RMK AO2


Station Type Date Time Source
KSAA Decoded METAR 2022/01/23 11:15 UTC NOAA

Station name not available
Jan 23, 2022 - 06:15 AM EST / 2022.01.23 1115 UTC
Wind: from the SSE (160 degrees) at 10 MPH (9 KT):0
Visibility: 10 mile(s):0
Sky conditions: clear
Temperature: 10 F (-12 C)
Windchill: -4 F (-20 C):1
Dew Point: 3 F (-16 C)
Relative Humidity: 72%
Pressure (altimeter): 30.27 in. Hg (1025 hPa)
ob: KSAA 231115Z AUTO 16009KT 10SM CLR M12/M16 A3027 RMK AO2
cycle: 11

Station Type Date Time Source
KSAA TAF UTC NOAA

Error!

Example: see airport list